createdAt,value
2023-04-16T00:05:00.834Z,8.75
2023-04-16T00:10:05.801Z,8.77
2023-04-16T00:15:09.500Z,8.77
2023-04-16T00:20:12.507Z,8.66
2023-04-16T00:25:16.710Z,8.58
2023-04-16T00:30:19.650Z,8.47
2023-04-16T00:35:22.651Z,8.65
2023-04-16T00:40:29.679Z,8.65
2023-04-16T00:45:32.637Z,8.67
2023-04-16T00:50:35.678Z,8.53
2023-04-16T00:55:40.912Z,8.63
2023-04-16T01:00:43.896Z,8.66
2023-04-16T01:05:49.281Z,8.60
2023-04-16T01:10:53.477Z,8.59
2023-04-16T01:15:56.296Z,8.60
2023-04-16T01:21:01.027Z,8.60
2023-04-16T01:26:03.962Z,8.57
2023-04-16T01:31:06.901Z,8.65
2023-04-16T01:36:40.914Z,8.60
2023-04-16T01:41:44.027Z,8.58
2023-04-16T01:46:46.977Z,8.64
2023-04-16T01:51:53.020Z,8.59
2023-04-16T01:56:55.919Z,8.61
2023-04-16T02:02:02.354Z,8.64
2023-04-16T02:07:06.806Z,8.65
2023-04-16T02:12:11.367Z,8.65
2023-04-16T02:17:15.492Z,8.64
2023-04-16T02:22:20.689Z,8.55
2023-04-16T02:27:24.243Z,8.57
2023-04-16T02:32:34.113Z,8.53
2023-04-16T02:37:40.811Z,8.57
2023-04-16T02:42:43.790Z,8.57
2023-04-16T02:47:46.694Z,8.60
2023-04-16T02:52:51.589Z,8.60
2023-04-16T02:57:54.564Z,8.57
2023-04-16T03:02:57.630Z,8.50
2023-04-16T03:08:02.020Z,8.51
2023-04-16T03:13:06.024Z,8.52
2023-04-16T03:18:08.852Z,8.40
2023-04-16T03:23:13.081Z,8.37
2023-04-16T03:28:16.188Z,8.40
2023-04-16T03:33:19.391Z,8.38
2023-04-16T03:38:23.934Z,8.46
2023-04-16T03:43:27.305Z,8.31
2023-04-16T03:48:30.436Z,8.36
2023-04-16T03:53:35.856Z,8.44
2023-04-16T03:58:38.836Z,8.36
2023-04-16T04:03:41.942Z,8.41
2023-04-16T04:08:46.384Z,8.40
2023-04-16T04:13:50.627Z,8.35
2023-04-16T04:18:53.588Z,8.23
2023-04-16T04:23:59.934Z,8.17
2023-04-16T04:29:05.689Z,8.21
2023-04-16T04:34:08.564Z,7.97
2023-04-16T04:39:12.993Z,8.11
2023-04-16T04:44:19.308Z,8.16
2023-04-16T04:49:22.232Z,8.17
2023-04-16T04:54:26.538Z,8.14
2023-04-16T04:59:29.958Z,8.17
2023-04-16T05:04:33.120Z,8.16
2023-04-16T05:09:38.468Z,8.18
2023-04-16T05:14:41.328Z,8.20
2023-04-16T05:19:44.155Z,8.20
2023-04-16T05:24:48.360Z,8.15
2023-04-16T05:29:51.264Z,8.10
2023-04-16T05:34:54.102Z,8.03
2023-04-16T05:39:58.259Z,8.15
2023-04-16T05:45:01.080Z,8.09
2023-04-16T05:50:03.934Z,8.05
2023-04-16T05:55:08.777Z,8.14
2023-04-16T06:00:12.221Z,8.14
2023-04-16T06:05:15.086Z,8.17
2023-04-16T06:10:19.434Z,8.30
2023-04-16T06:15:22.331Z,8.38
2023-04-16T06:20:25.474Z,8.42
2023-04-16T06:25:29.645Z,8.35
2023-04-16T06:30:32.534Z,8.54
2023-04-16T06:35:35.875Z,8.49
2023-04-16T06:40:40.155Z,8.49
2023-04-16T06:45:42.974Z,8.51
2023-04-16T06:50:45.827Z,8.71
2023-04-16T06:55:50.122Z,8.82
2023-04-16T07:00:53.202Z,8.91
2023-04-16T07:05:56.176Z,8.97
2023-04-16T07:11:00.940Z,9.22
2023-04-16T07:16:03.803Z,9.17
2023-04-16T07:21:06.757Z,9.20
2023-04-16T07:26:11.526Z,9.20
2023-04-16T07:31:14.355Z,9.25
2023-04-16T07:36:17.187Z,9.37
2023-04-16T07:41:21.411Z,9.61
2023-04-16T07:46:24.991Z,9.73
2023-04-16T07:51:29.376Z,9.75
2023-04-16T07:56:33.527Z,9.69
2023-04-16T08:01:36.506Z,9.56
2023-04-16T08:06:39.324Z,9.71
2023-04-16T08:11:43.749Z,10.05
2023-04-16T08:16:47.558Z,10.25
2023-04-16T08:21:50.414Z,10.12
2023-04-16T08:26:57.000Z,10.30
2023-04-16T08:32:03.442Z,10.42
2023-04-16T08:37:06.332Z,10.51
2023-04-16T08:42:15.720Z,10.33
2023-04-16T08:47:18.871Z,10.32
2023-04-16T08:52:24.965Z,10.32
2023-04-16T08:57:36.498Z,10.76
2023-04-16T09:02:39.925Z,11.22
2023-04-16T09:07:43.475Z,11.10
2023-04-16T09:12:47.652Z,11.22
2023-04-16T09:17:50.693Z,11.13
2023-04-16T09:22:53.695Z,11.33
2023-04-16T09:27:57.968Z,10.87
2023-04-16T09:33:16.517Z,10.78
2023-04-16T09:38:19.899Z,10.74
2023-04-16T09:43:24.064Z,10.86
2023-04-16T09:48:33.046Z,10.99
2023-04-16T09:53:36.717Z,11.09
2023-04-16T09:58:41.434Z,10.96
2023-04-16T10:03:44.428Z,11.31
2023-04-16T10:08:49.916Z,11.42
2023-04-16T10:13:54.616Z,11.11
2023-04-16T10:18:58.061Z,10.73
2023-04-16T10:24:01.693Z,10.47
2023-04-16T10:29:08.434Z,10.33
2023-04-16T10:34:11.883Z,10.15
2023-04-16T10:39:17.107Z,10.05
2023-04-16T10:44:21.700Z,10.10
2023-04-16T10:49:25.573Z,9.86
2023-04-16T10:54:29.989Z,9.81
2023-04-16T10:59:35.916Z,9.86
2023-04-16T11:04:40.439Z,9.82
2023-04-16T11:09:57.632Z,9.82
2023-04-16T11:15:03.228Z,9.91
2023-04-16T11:20:21.163Z,9.88
2023-04-16T11:25:25.415Z,9.90
2023-04-16T11:30:35.097Z,9.88
2023-04-16T11:35:39.225Z,9.97
2023-04-16T11:40:43.484Z,10.00
2023-04-16T11:45:58.522Z,10.08
2023-04-16T11:51:01.473Z,10.16
2023-04-16T11:56:04.804Z,10.14
2023-04-16T12:01:10.140Z,10.17
2023-04-16T12:06:12.977Z,10.03
2023-04-16T12:11:16.027Z,10.19
2023-04-16T12:16:21.794Z,10.33
2023-04-16T12:21:24.581Z,10.57
2023-04-16T12:26:27.407Z,10.60
2023-04-16T12:31:39.133Z,10.61
2023-04-16T12:36:42.489Z,10.71
2023-04-16T12:41:45.686Z,10.79
2023-04-16T12:46:49.825Z,11.01
2023-04-16T12:51:52.646Z,11.43
2023-04-16T12:56:55.543Z,11.72
2023-04-16T13:02:01.455Z,12.05
2023-04-16T13:07:06.704Z,11.94
2023-04-16T13:12:09.447Z,12.26
2023-04-16T13:17:13.607Z,12.27
2023-04-16T13:22:16.484Z,12.35
2023-04-16T13:27:19.286Z,12.31
2023-04-16T13:32:23.867Z,12.59
2023-04-16T13:37:26.654Z,12.33
2023-04-16T13:42:29.490Z,12.23
2023-04-16T13:47:33.718Z,12.04
2023-04-16T13:52:36.613Z,12.24
2023-04-16T13:57:39.831Z,12.43
2023-04-16T14:02:45.943Z,12.51
2023-04-16T14:07:48.820Z,12.68
2023-04-16T14:12:51.958Z,12.81
2023-04-16T14:17:56.390Z,12.97
2023-04-16T14:22:59.170Z,12.82
2023-04-16T14:28:02.049Z,12.92
2023-04-16T14:33:06.735Z,12.84
2023-04-16T14:38:09.576Z,12.78
2023-04-16T14:43:12.306Z,12.82
2023-04-16T14:48:16.538Z,12.86
2023-04-16T14:53:19.394Z,13.04
2023-04-16T14:58:22.629Z,12.97
2023-04-16T15:03:27.382Z,12.87
2023-04-16T15:08:30.232Z,12.75
2023-04-16T15:13:34.606Z,12.65
2023-04-16T15:18:38.828Z,12.62
2023-04-16T15:23:41.676Z,12.44
2023-04-16T15:28:44.501Z,12.32
2023-04-16T15:33:48.783Z,12.29
2023-04-16T15:38:51.617Z,12.31
2023-04-16T15:43:54.474Z,12.30
2023-04-16T15:48:58.668Z,12.10
2023-04-16T15:54:01.489Z,12.24
2023-04-16T15:59:04.337Z,12.38
2023-04-16T16:04:08.874Z,12.39
2023-04-16T16:09:12.073Z,12.32
2023-04-16T16:14:16.787Z,12.27
2023-04-16T16:19:22.382Z,12.23
2023-04-16T16:24:25.151Z,12.18
2023-04-16T16:29:27.889Z,12.19
2023-04-16T16:34:31.996Z,12.14
2023-04-16T16:39:36.600Z,12.04
2023-04-16T16:44:40.760Z,11.95
2023-04-16T16:49:45.142Z,11.94
2023-04-16T16:54:47.967Z,11.83
2023-04-16T16:59:51.492Z,11.72
2023-04-16T17:04:55.749Z,11.64
2023-04-16T17:10:01.610Z,11.64
2023-04-16T17:15:06.492Z,11.65
2023-04-16T17:20:12.491Z,11.63
2023-04-16T17:25:15.673Z,11.60
2023-04-16T17:30:18.860Z,11.52
2023-04-16T17:35:23.142Z,11.45
2023-04-16T17:40:26.132Z,11.40
2023-04-16T17:45:29.115Z,11.34
2023-04-16T17:50:33.348Z,11.29
2023-04-16T17:55:36.606Z,11.21
2023-04-16T18:00:39.543Z,11.13
2023-04-16T18:05:43.713Z,11.09
2023-04-16T18:10:46.601Z,11.02
2023-04-16T18:15:49.603Z,10.95
2023-04-16T18:20:54.646Z,10.88
2023-04-16T18:25:57.600Z,10.84
2023-04-16T18:31:04.911Z,10.82
2023-04-16T18:36:11.730Z,10.76
2023-04-16T18:41:17.602Z,10.71
2023-04-16T18:46:20.557Z,10.70
2023-04-16T18:51:24.969Z,10.68
2023-04-16T18:56:30.209Z,10.65
2023-04-16T19:01:33.122Z,10.64
2023-04-16T19:06:37.323Z,10.61
2023-04-16T19:11:40.236Z,10.63
2023-04-16T19:16:43.320Z,10.63
2023-04-16T19:21:47.605Z,10.58
2023-04-16T19:26:50.509Z,10.59
2023-04-16T19:31:53.465Z,10.56
2023-04-16T19:36:57.715Z,10.47
2023-04-16T19:42:01.690Z,10.48
2023-04-16T19:47:06.151Z,10.49
2023-04-16T19:52:10.373Z,10.49
2023-04-16T19:57:13.235Z,10.46
2023-04-16T20:02:16.091Z,10.45
2023-04-16T20:07:20.416Z,10.42
2023-04-16T20:12:23.514Z,10.42
2023-04-16T20:17:26.618Z,10.41
2023-04-16T20:22:30.929Z,10.37
2023-04-16T20:27:34.380Z,10.34
2023-04-16T20:32:37.605Z,10.29
2023-04-16T20:37:42.076Z,10.21
2023-04-16T20:42:46.582Z,10.15
2023-04-16T20:47:49.504Z,10.10
2023-04-16T20:52:54.225Z,10.05
2023-04-16T20:57:57.344Z,10.05
2023-04-16T21:03:00.458Z,10.01
2023-04-16T21:08:05.367Z,9.98
2023-04-16T21:13:10.622Z,9.96
2023-04-16T21:18:14.115Z,9.91
2023-04-16T21:23:18.683Z,9.86
2023-04-16T21:28:21.736Z,9.82
2023-04-16T21:33:24.879Z,9.80
2023-04-16T21:38:29.051Z,9.75
2023-04-16T21:43:32.206Z,9.73
2023-04-16T21:48:35.201Z,9.69
2023-04-16T21:53:39.673Z,9.67
2023-04-16T21:58:42.611Z,9.62
2023-04-16T22:03:47.433Z,9.43
2023-04-16T22:08:53.430Z,9.34
2023-04-16T22:13:57.742Z,9.33
2023-04-16T22:19:00.556Z,9.26
2023-04-16T22:24:04.862Z,9.21
2023-04-16T22:29:07.695Z,9.19
2023-04-16T22:34:10.462Z,9.20
2023-04-16T22:39:15.315Z,9.19
2023-04-16T22:44:18.110Z,9.15
2023-04-16T22:49:21.164Z,9.20
2023-04-16T22:54:29.080Z,9.21
2023-04-16T22:59:32.217Z,9.18
2023-04-16T23:04:35.162Z,9.17
2023-04-16T23:09:39.411Z,9.19
2023-04-16T23:14:45.786Z,9.21
2023-04-16T23:19:48.564Z,9.24
2023-04-16T23:24:52.690Z,9.25
2023-04-16T23:29:55.465Z,9.26
2023-04-16T23:34:58.494Z,9.26
2023-04-16T23:40:02.624Z,9.24
2023-04-16T23:45:05.874Z,9.24
2023-04-16T23:50:08.993Z,9.22
2023-04-16T23:55:13.156Z,9.19
